Tillsonburg, Canada
Current Conditions -  °F | °C
As of 9:00 AM on Monday 22 Dec 2014 (Local Time) from CYHM Reporting Station
Broken Clouds Broken Clouds  
Wind Chill: 20°   Ceiling: 23000
Heat Index: 28°   Visibility: 15mi
Dew Point: 23°   Wind: 9mph
Humidity: 80%   Direction: 80°E
Pressure: 30.16"   Gusts: NA
Location:  42.8°N, 80.15°W
Report Text: CYHM 221400Z 08008KT 15SM SCT018 BKN230 M02/M05 A3016 RMK SC4CI3 SLP226
Loading
Personal Weather Stations






























Interactive Weather Map New forecast layout! Learn more

10-Day Weather Forecast

Advertisements
Track Severe Weather on mobile